createdAt,value
2017-08-06T00:01:49.916Z,15.20
2017-08-06T00:04:16.233Z,15.20
2017-08-06T00:06:42.556Z,15.10
2017-08-06T00:09:09.575Z,15.00
2017-08-06T00:11:35.916Z,15.00
2017-08-06T00:14:02.968Z,14.90
2017-08-06T00:16:30.046Z,14.80
2017-08-06T00:18:56.357Z,14.80
2017-08-06T00:21:23.423Z,14.70
2017-08-06T00:23:49.759Z,14.70
2017-08-06T00:26:16.045Z,14.70
2017-08-06T00:28:43.107Z,14.60
2017-08-06T00:31:10.205Z,14.50
2017-08-06T00:33:36.500Z,14.50
2017-08-06T00:36:02.800Z,14.50
2017-08-06T00:38:29.824Z,14.40
2017-08-06T00:40:56.209Z,14.40
2017-08-06T00:43:22.539Z,14.40
2017-08-06T00:45:48.841Z,14.40
2017-08-06T00:48:15.195Z,14.40
2017-08-06T00:50:41.505Z,14.50
2017-08-06T00:53:07.808Z,14.60
2017-08-06T00:55:34.131Z,14.60
2017-08-06T00:58:00.467Z,14.50
2017-08-06T01:00:26.798Z,14.50
2017-08-06T01:02:53.099Z,14.50
2017-08-06T01:05:19.423Z,14.60
2017-08-06T01:07:45.720Z,14.50
2017-08-06T01:10:12.938Z,14.40
2017-08-06T01:12:39.232Z,14.40
2017-08-06T01:15:05.536Z,14.50
2017-08-06T01:17:31.873Z,14.40
2017-08-06T01:19:58.168Z,14.30
2017-08-06T01:22:24.472Z,14.30
2017-08-06T01:24:50.763Z,14.20
2017-08-06T01:27:17.054Z,14.10
2017-08-06T01:29:43.408Z,14.10
2017-08-06T01:32:10.452Z,14.10
2017-08-06T01:34:37.464Z,14.10
2017-08-06T01:37:03.814Z,14.10
2017-08-06T01:39:30.876Z,14.00
2017-08-06T01:41:57.163Z,13.90
2017-08-06T01:44:23.456Z,14.00
2017-08-06T01:46:49.776Z,14.00
2017-08-06T01:49:16.076Z,13.90
2017-08-06T01:51:42.436Z,13.90
2017-08-06T01:54:09.467Z,13.90
2017-08-06T01:56:36.537Z,13.80
2017-08-06T01:59:02.842Z,13.80
2017-08-06T02:01:29.120Z,13.80
2017-08-06T02:03:55.404Z,13.80
2017-08-06T02:06:22.483Z,13.70
2017-08-06T02:08:48.847Z,13.70
2017-08-06T02:11:15.136Z,13.60
2017-08-06T02:13:41.446Z,13.70
2017-08-06T02:16:08.483Z,13.70
2017-08-06T02:18:34.849Z,13.70
2017-08-06T02:21:01.223Z,13.70
2017-08-06T02:23:27.508Z,13.70
2017-08-06T02:25:53.800Z,13.60
2017-08-06T02:28:20.104Z,13.60
2017-08-06T02:30:46.415Z,13.60
2017-08-06T02:33:12.748Z,13.50
2017-08-06T02:35:39.040Z,13.50
2017-08-06T02:38:06.087Z,13.50
2017-08-06T02:40:33.173Z,13.50
2017-08-06T02:42:59.500Z,13.50
2017-08-06T02:45:25.992Z,13.50
2017-08-06T02:47:52.331Z,13.50
2017-08-06T02:50:19.379Z,13.50
2017-08-06T02:52:45.792Z,13.50
2017-08-06T02:55:12.109Z,13.50
2017-08-06T02:57:38.441Z,13.50
2017-08-06T03:00:04.728Z,13.50
2017-08-06T03:02:31.040Z,13.60
2017-08-06T03:04:57.339Z,13.70
2017-08-06T03:07:23.615Z,13.60
2017-08-06T03:09:49.897Z,13.60
2017-08-06T03:12:16.963Z,13.40
2017-08-06T03:14:44.075Z,13.40
2017-08-06T03:17:10.376Z,13.30
2017-08-06T03:19:36.700Z,13.30
2017-08-06T03:22:02.999Z,13.20
2017-08-06T03:24:29.319Z,13.30
2017-08-06T03:26:56.321Z,13.50
2017-08-06T03:29:22.630Z,13.40
2017-08-06T03:31:48.893Z,13.40
2017-08-06T03:34:15.211Z,13.30
2017-08-06T03:36:41.567Z,13.40
2017-08-06T03:39:08.634Z,13.60
2017-08-06T03:41:35.719Z,13.50
2017-08-06T03:44:01.999Z,13.40
2017-08-06T03:46:28.504Z,13.40
2017-08-06T03:48:54.792Z,13.30
2017-08-06T03:51:21.113Z,13.20
2017-08-06T03:53:47.444Z,13.20
2017-08-06T03:56:14.508Z,13.00
2017-08-06T03:58:40.823Z,13.00
2017-08-06T04:01:07.119Z,13.10
2017-08-06T04:03:34.264Z,13.10
2017-08-06T04:06:00.562Z,13.10
2017-08-06T04:08:26.896Z,13.10
2017-08-06T04:10:53.189Z,13.10
2017-08-06T04:13:19.495Z,13.10
2017-08-06T04:15:45.793Z,13.10
2017-08-06T04:18:12.115Z,13.10
2017-08-06T04:20:38.408Z,13.10
2017-08-06T04:23:05.438Z,13.10
2017-08-06T04:25:31.743Z,13.10
2017-08-06T04:27:58.136Z,13.20
2017-08-06T04:30:24.689Z,13.30
2017-08-06T04:32:50.976Z,13.60
2017-08-06T04:35:18.192Z,13.90
2017-08-06T04:37:44.568Z,13.90
2017-08-06T04:40:11.593Z,14.10
2017-08-06T04:42:38.635Z,14.10
2017-08-06T04:45:04.973Z,14.00
2017-08-06T04:47:32.081Z,14.10
2017-08-06T04:49:58.391Z,14.00
2017-08-06T04:52:24.696Z,14.00
2017-08-06T04:54:51.723Z,14.20
2017-08-06T04:57:18.795Z,14.30
2017-08-06T04:59:45.808Z,14.30
2017-08-06T05:02:12.865Z,14.30
2017-08-06T05:04:39.929Z,14.40
2017-08-06T05:07:06.380Z,14.40
2017-08-06T05:09:32.660Z,14.60
2017-08-06T05:11:58.947Z,14.80
2017-08-06T05:14:25.252Z,14.90
2017-08-06T05:16:51.572Z,15.10
2017-08-06T05:19:19.460Z,15.50
2017-08-06T05:21:45.756Z,15.50
2017-08-06T05:24:12.075Z,15.70
2017-08-06T05:26:38.363Z,15.80
2017-08-06T05:29:04.635Z,15.90
2017-08-06T05:31:30.945Z,16.10
2017-08-06T05:33:57.242Z,16.20
2017-08-06T05:36:23.547Z,16.40
2017-08-06T05:38:50.653Z,17.40
2017-08-06T05:41:16.965Z,17.40
2017-08-06T05:43:43.304Z,17.80
2017-08-06T05:46:09.696Z,18.70
2017-08-06T05:48:36.801Z,21.30
2017-08-06T05:51:03.120Z,21.20
2017-08-06T05:53:29.387Z,22.40
2017-08-06T05:55:55.695Z,24.40
2017-08-06T05:58:21.977Z,26.40
2017-08-06T06:00:48.317Z,28.50
2017-08-06T06:03:14.636Z,30.20
2017-08-06T06:05:40.951Z,31.60
2017-08-06T06:08:07.992Z,33.70
2017-08-06T06:10:35.066Z,34.50
2017-08-06T06:13:01.356Z,34.50
2017-08-06T06:15:27.635Z,35.40
2017-08-06T06:17:53.956Z,36.20
2017-08-06T06:20:20.295Z,36.70
2017-08-06T06:22:46.806Z,37.50
2017-08-06T06:25:13.095Z,38.20
2017-08-06T06:27:39.368Z,38.70
2017-08-06T06:30:05.656Z,39.30
2017-08-06T06:32:31.958Z,39.60
2017-08-06T06:34:58.328Z,39.50
2017-08-06T06:37:25.347Z,36.80
2017-08-06T06:39:51.655Z,36.80
2017-08-06T06:42:18.040Z,35.40
2017-08-06T06:44:44.357Z,35.30
2017-08-06T06:47:10.797Z,35.00
2017-08-06T06:49:37.920Z,35.50
2017-08-06T06:52:04.275Z,35.40
2017-08-06T06:54:30.581Z,36.50
2017-08-06T06:56:56.960Z,37.50
2017-08-06T06:59:24.007Z,38.20
2017-08-06T07:01:51.036Z,36.60
2017-08-06T07:04:18.228Z,34.70
2017-08-06T07:06:44.523Z,34.70
2017-08-06T07:09:11.568Z,31.00
2017-08-06T07:11:38.603Z,29.60
2017-08-06T07:14:04.916Z,29.60
2017-08-06T07:16:31.247Z,28.60
2017-08-06T07:18:57.550Z,27.70
2017-08-06T07:21:23.861Z,27.10
2017-08-06T07:23:50.165Z,26.60
2017-08-06T07:26:17.228Z,26.00
2017-08-06T07:28:44.319Z,25.80
2017-08-06T07:31:10.780Z,25.70
2017-08-06T07:33:37.385Z,25.80
2017-08-06T07:36:03.751Z,26.70
2017-08-06T07:38:30.459Z,29.50
2017-08-06T07:40:56.864Z,30.70
2017-08-06T07:43:23.203Z,30.90
2017-08-06T07:45:49.523Z,32.30
2017-08-06T07:48:15.896Z,32.00
2017-08-06T07:50:42.216Z,31.70
2017-08-06T07:53:08.520Z,33.40
2017-08-06T07:55:34.899Z,35.40
2017-08-06T07:58:01.274Z,35.40
2017-08-06T08:00:27.560Z,34.40
2017-08-06T08:02:53.858Z,32.50
2017-08-06T08:05:20.200Z,31.00
2017-08-06T08:07:46.512Z,29.80
2017-08-06T08:10:12.912Z,28.50
2017-08-06T08:12:39.573Z,27.40
2017-08-06T08:15:06.029Z,26.50
2017-08-06T08:17:32.635Z,26.90
2017-08-06T08:19:58.932Z,29.80
2017-08-06T08:22:25.992Z,37.20
2017-08-06T08:24:52.347Z,37.10
2017-08-06T08:27:18.691Z,40.50
2017-08-06T08:29:44.966Z,43.40
2017-08-06T08:32:11.272Z,46.00
2017-08-06T08:34:37.587Z,46.80
2017-08-06T08:37:03.895Z,46.60
2017-08-06T08:39:30.195Z,45.20
2017-08-06T08:41:57.252Z,46.30
2017-08-06T08:44:24.291Z,47.20
2017-08-06T08:46:51.325Z,47.70
2017-08-06T08:49:17.615Z,47.70
2017-08-06T08:51:44.033Z,48.30
2017-08-06T08:54:10.418Z,49.00
2017-08-06T08:56:36.773Z,48.60
2017-08-06T08:59:03.069Z,47.30
2017-08-06T09:01:29.386Z,45.20
2017-08-06T09:03:55.703Z,41.80
2017-08-06T09:06:21.995Z,39.90
2017-08-06T09:08:48.380Z,39.20
2017-08-06T09:11:14.731Z,38.00
2017-08-06T09:13:41.067Z,35.90
2017-08-06T09:16:08.215Z,32.60
2017-08-06T09:18:35.247Z,32.30
2017-08-06T09:21:01.552Z,32.30
2017-08-06T09:23:27.908Z,34.00
2017-08-06T09:25:54.214Z,36.60
2017-08-06T09:28:20.561Z,39.40
2017-08-06T09:30:46.867Z,41.20
2017-08-06T09:33:13.172Z,40.90
2017-08-06T09:35:39.471Z,40.20
2017-08-06T09:38:06.627Z,42.20
2017-08-06T09:40:33.732Z,43.30
2017-08-06T09:43:00.011Z,43.30
2017-08-06T09:45:27.060Z,43.70
2017-08-06T09:47:53.411Z,43.60
2017-08-06T09:50:19.876Z,41.50
2017-08-06T09:52:46.224Z,39.00
2017-08-06T09:55:12.546Z,36.50
2017-08-06T09:57:38.872Z,34.30
2017-08-06T10:00:05.167Z,32.70
2017-08-06T10:02:31.490Z,32.60
2017-08-06T10:04:57.798Z,32.80
2017-08-06T10:07:24.854Z,31.60
2017-08-06T10:09:51.193Z,31.60
2017-08-06T10:12:17.488Z,31.00
2017-08-06T10:14:44.564Z,29.30
2017-08-06T10:17:10.862Z,29.20
2017-08-06T10:19:37.172Z,28.50
2017-08-06T10:22:03.454Z,27.80
2017-08-06T10:24:29.773Z,27.20
2017-08-06T10:26:56.856Z,26.70
2017-08-06T10:29:23.185Z,26.70
2017-08-06T10:31:49.529Z,26.70
2017-08-06T10:34:15.818Z,26.70
2017-08-06T10:36:42.112Z,26.80
2017-08-06T10:39:08.452Z,26.70
2017-08-06T10:41:34.745Z,26.80
2017-08-06T10:44:01.108Z,26.90
2017-08-06T10:46:27.415Z,26.80
2017-08-06T10:48:53.733Z,26.60
2017-08-06T10:51:20.249Z,26.50
2017-08-06T10:53:46.589Z,26.30
2017-08-06T10:56:13.020Z,26.30
2017-08-06T10:58:46.420Z,26.10
2017-08-06T11:01:12.748Z,25.90
2017-08-06T11:03:39.019Z,25.60
2017-08-06T11:06:05.349Z,25.50
2017-08-06T11:08:32.433Z,25.60
2017-08-06T11:10:59.068Z,25.50
2017-08-06T11:13:25.411Z,25.70
2017-08-06T11:15:51.716Z,25.90
2017-08-06T11:18:18.040Z,26.00
2017-08-06T11:20:45.080Z,26.00
2017-08-06T11:23:11.392Z,26.00
2017-08-06T11:25:38.092Z,26.00
2017-08-06T11:28:04.532Z,25.90
2017-08-06T11:30:30.864Z,25.90
2017-08-06T11:32:57.175Z,25.80
2017-08-06T11:35:23.513Z,25.70
2017-08-06T11:37:49.878Z,25.90
2017-08-06T11:40:16.202Z,26.20
2017-08-06T11:42:42.621Z,26.40
2017-08-06T11:45:08.937Z,26.70
2017-08-06T11:47:35.346Z,26.90
2017-08-06T11:50:02.520Z,26.90
2017-08-06T11:52:28.876Z,26.90
2017-08-06T11:54:55.185Z,26.60
2017-08-06T11:57:21.464Z,26.30
2017-08-06T11:59:47.790Z,26.20
2017-08-06T12:02:14.096Z,26.10
2017-08-06T12:04:40.438Z,26.10
2017-08-06T12:07:06.722Z,26.30
2017-08-06T12:09:33.046Z,26.50
2017-08-06T12:11:59.365Z,26.60
2017-08-06T12:14:25.688Z,26.50
2017-08-06T12:16:51.987Z,26.30
2017-08-06T12:19:18.283Z,26.20
2017-08-06T12:21:44.611Z,26.20
2017-08-06T12:24:10.892Z,26.20
2017-08-06T12:26:37.169Z,26.20
2017-08-06T12:29:03.484Z,26.10
2017-08-06T12:31:29.803Z,26.00
2017-08-06T12:33:56.276Z,26.00
2017-08-06T12:36:22.756Z,25.90
2017-08-06T12:38:50.015Z,25.70
2017-08-06T12:41:16.340Z,25.60
2017-08-06T12:43:43.377Z,25.60
2017-08-06T12:46:09.683Z,25.60
2017-08-06T12:48:35.976Z,25.60
2017-08-06T12:51:02.333Z,25.70
2017-08-06T12:53:28.820Z,25.70
2017-08-06T12:55:55.123Z,25.80
2017-08-06T12:58:21.425Z,25.90
2017-08-06T13:00:47.730Z,25.80
2017-08-06T13:03:14.105Z,25.70
2017-08-06T13:05:40.589Z,25.70
2017-08-06T13:08:06.948Z,25.60
2017-08-06T13:10:33.276Z,25.70
2017-08-06T13:12:59.571Z,25.80
2017-08-06T13:15:25.894Z,26.00
2017-08-06T13:17:52.211Z,26.30
2017-08-06T13:20:19.229Z,26.50
2017-08-06T13:22:45.552Z,26.50
2017-08-06T13:25:11.840Z,26.60
2017-08-06T13:27:38.140Z,26.70
2017-08-06T13:30:12.172Z,26.70
2017-08-06T13:32:38.632Z,26.70
2017-08-06T13:35:04.924Z,26.60
2017-08-06T13:37:31.967Z,26.40
2017-08-06T13:39:59.161Z,26.30
2017-08-06T13:42:25.475Z,26.30
2017-08-06T13:44:51.784Z,26.20
2017-08-06T13:47:18.073Z,26.20
2017-08-06T13:49:44.381Z,26.00
2017-08-06T13:52:10.729Z,25.90
2017-08-06T13:54:37.109Z,25.80
2017-08-06T13:57:03.424Z,25.80
2017-08-06T13:59:29.724Z,25.90
2017-08-06T14:01:56.259Z,26.20
2017-08-06T14:04:22.568Z,26.40
2017-08-06T14:06:48.888Z,26.50
2017-08-06T14:09:15.212Z,26.70
2017-08-06T14:11:41.699Z,26.90
2017-08-06T14:14:08.044Z,26.90
2017-08-06T14:16:35.121Z,27.00
2017-08-06T14:19:01.663Z,27.00
2017-08-06T14:21:28.036Z,27.10
2017-08-06T14:23:54.465Z,27.10
2017-08-06T14:26:20.941Z,27.10
2017-08-06T14:28:48.027Z,27.30
2017-08-06T14:31:14.392Z,27.30
2017-08-06T14:33:40.684Z,27.20
2017-08-06T14:36:07.069Z,27.00
2017-08-06T14:38:33.528Z,27.00
2017-08-06T14:40:59.862Z,27.00
2017-08-06T14:43:26.156Z,26.90
2017-08-06T14:45:52.479Z,26.80
2017-08-06T14:48:18.809Z,26.70
2017-08-06T14:50:45.087Z,26.50
2017-08-06T14:53:11.433Z,26.20
2017-08-06T14:55:37.753Z,25.80
2017-08-06T14:58:04.220Z,25.50
2017-08-06T15:00:30.569Z,25.30
2017-08-06T15:02:56.892Z,25.10
2017-08-06T15:05:23.392Z,24.90
2017-08-06T15:07:49.706Z,24.80
2017-08-06T15:10:15.984Z,24.70
2017-08-06T15:12:42.348Z,24.70
2017-08-06T15:15:08.821Z,24.70
2017-08-06T15:17:35.184Z,24.50
2017-08-06T15:20:01.479Z,24.40
2017-08-06T15:22:27.815Z,24.20
2017-08-06T15:24:54.108Z,24.10
2017-08-06T15:27:20.415Z,24.00
2017-08-06T15:29:46.768Z,24.00
2017-08-06T15:32:13.155Z,23.90
2017-08-06T15:34:39.428Z,24.00
2017-08-06T15:37:05.750Z,24.00
2017-08-06T15:39:32.208Z,23.90
2017-08-06T15:41:58.633Z,23.80
2017-08-06T15:44:24.967Z,23.90
2017-08-06T15:46:51.339Z,23.90
2017-08-06T15:49:17.673Z,23.90
2017-08-06T15:51:43.992Z,23.90
2017-08-06T15:54:10.323Z,24.10
2017-08-06T15:56:36.637Z,24.00
2017-08-06T15:59:02.947Z,24.00
2017-08-06T16:01:29.283Z,24.00
2017-08-06T16:03:55.586Z,24.00
2017-08-06T16:06:21.888Z,24.00
2017-08-06T16:08:48.188Z,24.00
2017-08-06T16:11:14.521Z,24.00
2017-08-06T16:13:40.841Z,24.00
2017-08-06T16:16:07.162Z,23.90
2017-08-06T16:18:33.479Z,23.80
2017-08-06T16:20:59.878Z,23.80
2017-08-06T16:23:26.992Z,23.70
2017-08-06T16:25:53.297Z,23.70
2017-08-06T16:28:19.617Z,23.70
2017-08-06T16:30:45.940Z,23.70
2017-08-06T16:33:12.257Z,23.60
2017-08-06T16:35:38.592Z,23.70
2017-08-06T16:38:04.905Z,23.80
2017-08-06T16:40:32.155Z,24.20
2017-08-06T16:42:58.455Z,24.20
2017-08-06T16:45:24.732Z,24.30
2017-08-06T16:47:51.082Z,24.40
2017-08-06T16:50:17.352Z,24.60
2017-08-06T16:52:43.687Z,24.70
2017-08-06T16:55:10.835Z,24.70
2017-08-06T16:57:37.149Z,24.70
2017-08-06T17:00:03.462Z,24.80
2017-08-06T17:02:29.769Z,24.70
2017-08-06T17:04:56.091Z,24.60
2017-08-06T17:07:22.376Z,24.60
2017-08-06T17:09:48.667Z,24.60
2017-08-06T17:12:15.010Z,24.60
2017-08-06T17:14:41.302Z,24.60
2017-08-06T17:17:07.664Z,24.50
2017-08-06T17:19:33.971Z,24.50
2017-08-06T17:22:00.465Z,24.50
2017-08-06T17:24:26.763Z,24.50
2017-08-06T17:26:53.048Z,24.40
2017-08-06T17:29:20.225Z,24.30
2017-08-06T17:31:46.532Z,24.30
2017-08-06T17:34:12.872Z,24.20
2017-08-06T17:36:45.562Z,24.20
2017-08-06T17:39:22.948Z,24.10
2017-08-06T17:42:00.680Z,24.10
2017-08-06T17:44:37.221Z,24.00
2017-08-06T17:47:03.612Z,24.00
2017-08-06T17:49:30.825Z,23.80
2017-08-06T17:51:57.141Z,23.80
2017-08-06T17:54:23.510Z,23.70
2017-08-06T17:56:49.805Z,23.50
2017-08-06T17:59:16.340Z,23.30
2017-08-06T18:01:42.695Z,23.20
2017-08-06T18:04:09.024Z,23.00
2017-08-06T18:06:35.354Z,22.80
2017-08-06T18:09:01.636Z,22.60
2017-08-06T18:11:28.845Z,22.20
2017-08-06T18:13:55.152Z,22.20
2017-08-06T18:16:21.501Z,22.10
2017-08-06T18:18:47.787Z,21.90
2017-08-06T18:21:14.084Z,21.80
2017-08-06T18:23:40.401Z,21.60
2017-08-06T18:26:06.709Z,21.50
2017-08-06T18:28:33.029Z,21.30
2017-08-06T18:30:59.359Z,21.20
2017-08-06T18:33:25.726Z,21.00
2017-08-06T18:35:52.055Z,20.80
2017-08-06T18:38:18.393Z,20.70
2017-08-06T18:40:44.741Z,20.50
2017-08-06T18:43:11.085Z,20.40
2017-08-06T18:45:37.395Z,20.30
2017-08-06T18:48:04.536Z,20.10
2017-08-06T18:50:31.647Z,20.10
2017-08-06T18:52:58.015Z,20.10
2017-08-06T18:55:24.481Z,20.00
2017-08-06T18:57:50.848Z,19.90
2017-08-06T19:00:17.169Z,19.80
2017-08-06T19:02:43.500Z,19.70
2017-08-06T19:05:09.834Z,19.60
2017-08-06T19:07:36.194Z,19.50
2017-08-06T19:10:02.546Z,19.60
2017-08-06T19:12:29.087Z,19.60
2017-08-06T19:14:56.179Z,19.60
2017-08-06T19:17:22.514Z,19.60
2017-08-06T19:19:48.894Z,19.50
2017-08-06T19:22:16.030Z,19.40
2017-08-06T19:24:43.118Z,19.30
2017-08-06T19:27:09.453Z,19.30
2017-08-06T19:29:35.759Z,19.20
2017-08-06T19:32:02.343Z,19.20
2017-08-06T19:34:28.666Z,19.10
2017-08-06T19:36:55.025Z,19.00
2017-08-06T19:39:22.226Z,19.00
2017-08-06T19:41:48.696Z,19.00
2017-08-06T19:44:15.146Z,19.20
2017-08-06T19:46:42.320Z,19.00
2017-08-06T19:49:08.717Z,18.90
2017-08-06T19:51:35.078Z,18.90
2017-08-06T19:54:02.242Z,18.70
2017-08-06T19:56:28.672Z,18.70
2017-08-06T19:58:54.994Z,18.60
2017-08-06T20:01:22.082Z,18.50
2017-08-06T20:03:48.436Z,18.50
2017-08-06T20:06:14.741Z,18.40
2017-08-06T20:08:41.040Z,18.50
2017-08-06T20:11:07.343Z,18.40
2017-08-06T20:13:33.659Z,18.40
2017-08-06T20:15:59.998Z,18.30
2017-08-06T20:18:26.325Z,18.20
2017-08-06T20:20:52.660Z,18.10
2017-08-06T20:23:18.961Z,18.10
2017-08-06T20:25:45.264Z,18.00
2017-08-06T20:28:11.604Z,17.90
2017-08-06T20:30:37.918Z,17.80
2017-08-06T20:33:04.281Z,17.70
2017-08-06T20:35:30.594Z,17.60
2017-08-06T20:37:56.898Z,17.60
2017-08-06T20:40:23.242Z,17.70
2017-08-06T20:42:49.551Z,17.60
2017-08-06T20:45:15.911Z,17.60
2017-08-06T20:47:42.248Z,17.50
2017-08-06T20:50:08.642Z,17.40
2017-08-06T20:52:35.703Z,17.30
2017-08-06T20:55:02.032Z,17.30
2017-08-06T20:57:28.369Z,17.30
2017-08-06T20:59:54.684Z,17.30
2017-08-06T21:02:21.086Z,17.30
2017-08-06T21:04:48.217Z,17.30
2017-08-06T21:07:14.752Z,17.30
2017-08-06T21:09:41.267Z,17.20
2017-08-06T21:12:07.830Z,17.10
2017-08-06T21:14:34.539Z,17.00
2017-08-06T21:17:00.922Z,17.00
2017-08-06T21:19:28.021Z,17.10
2017-08-06T21:21:54.504Z,17.10
2017-08-06T21:24:21.633Z,16.90
2017-08-06T21:26:47.989Z,16.90
2017-08-06T21:29:14.449Z,16.80
2017-08-06T21:31:40.833Z,16.80
2017-08-06T21:34:07.199Z,16.70
2017-08-06T21:36:33.632Z,16.60
2017-08-06T21:39:00.746Z,16.50
2017-08-06T21:41:27.122Z,16.50
2017-08-06T21:43:53.502Z,16.50
2017-08-06T21:46:19.875Z,16.50
2017-08-06T21:48:46.929Z,16.60
2017-08-06T21:51:13.325Z,16.50
2017-08-06T21:53:39.715Z,16.70
2017-08-06T21:56:06.148Z,16.70
2017-08-06T21:58:32.477Z,16.60
2017-08-06T22:00:59.054Z,16.60
2017-08-06T22:03:25.383Z,16.50
2017-08-06T22:05:52.504Z,16.40
2017-08-06T22:08:18.883Z,16.40
2017-08-06T22:10:45.929Z,16.30
2017-08-06T22:13:12.980Z,16.20
2017-08-06T22:15:40.264Z,16.10
2017-08-06T22:18:06.589Z,16.10
2017-08-06T22:20:32.924Z,16.10
2017-08-06T22:22:59.255Z,16.10
2017-08-06T22:25:25.569Z,16.10
2017-08-06T22:27:51.884Z,16.00
2017-08-06T22:30:18.969Z,15.90
2017-08-06T22:32:45.277Z,15.90
2017-08-06T22:35:11.603Z,15.90
2017-08-06T22:37:37.975Z,15.90
2017-08-06T22:40:04.385Z,15.90
2017-08-06T22:42:30.940Z,15.90
2017-08-06T22:44:57.327Z,15.90
2017-08-06T22:47:23.721Z,15.90
2017-08-06T22:49:50.048Z,15.80
2017-08-06T22:52:16.549Z,15.80
2017-08-06T22:54:42.905Z,15.70
2017-08-06T22:57:09.203Z,15.80
2017-08-06T22:59:35.561Z,15.90
2017-08-06T23:02:01.944Z,16.10
2017-08-06T23:04:28.974Z,16.00
2017-08-06T23:06:55.309Z,15.90
2017-08-06T23:09:22.368Z,15.70
2017-08-06T23:11:48.732Z,15.70
2017-08-06T23:14:15.039Z,15.60
2017-08-06T23:16:41.348Z,15.70
2017-08-06T23:19:08.376Z,15.60
2017-08-06T23:21:34.782Z,15.60
2017-08-06T23:24:01.056Z,15.60
2017-08-06T23:26:28.086Z,15.70
2017-08-06T23:28:54.384Z,15.70
2017-08-06T23:31:20.684Z,15.70
2017-08-06T23:33:46.974Z,15.70
2017-08-06T23:36:13.261Z,15.70
2017-08-06T23:38:39.580Z,15.70
2017-08-06T23:41:05.912Z,15.80
2017-08-06T23:43:32.193Z,15.80
2017-08-06T23:45:58.471Z,15.70
2017-08-06T23:48:24.782Z,15.80
2017-08-06T23:50:51.099Z,15.80
2017-08-06T23:53:18.147Z,16.00
2017-08-06T23:55:45.215Z,16.00
2017-08-06T23:58:11.509Z,16.00
